Time;durP1;ratioP1;P1;durP2;ratioP2;P2;SDS_P1;SDS_P2;PMS_P1;PMS_P2;Temp;Humidity;BMP_temperature;BMP_pressure;BME280_temperature;BME280_humidity;BME280_pressure;Samples;Min_cycle;Max_cycle;Signal;HPM_P1;HPM_P2
2024/02/01 00:01:29;;;;;;;20.40;4.72;;;;;;;4.19;100.00;102227.06;4977905;28;20054;-65
2024/02/01 00:03:56;;;;;;;22.42;5.22;;;;;;;4.15;100.00;102220.47;4961994;28;20055;-65
2024/02/01 00:06:23;;;;;;;18.80;4.65;;;;;;;4.17;100.00;102226.50;4982374;28;20046;-65
2024/02/01 00:08:51;;;;;;;18.20;4.60;;;;;;;4.14;100.00;102217.97;4985013;28;20043;-65
2024/02/01 00:11:18;;;;;;;24.00;6.40;;;;;;;4.10;100.00;102223.16;4984429;28;20560;-65
2024/02/01 00:13:46;;;;;;;26.15;5.47;;;;;;;4.09;100.00;102227.00;4986895;28;20039;-65
2024/02/01 00:16:22;;;;;;;21.98;5.70;;;;;;;4.08;100.00;102224.50;4990284;28;20404;-65
2024/02/01 00:18:50;;;;;;;23.02;4.68;;;;;;;4.07;100.00;102223.72;4989933;28;20038;-65
2024/02/01 00:21:17;;;;;;;17.75;4.13;;;;;;;4.03;100.00;102225.31;4990264;28;20054;-65
2024/02/01 00:23:45;;;;;;;19.17;4.55;;;;;;;3.99;100.00;102224.22;4964153;28;20049;-65
2024/02/01 00:26:12;;;;;;;21.58;5.35;;;;;;;4.01;100.00;102223.94;4990021;28;20408;-65
2024/02/01 00:28:39;;;;;;;24.85;4.50;;;;;;;3.99;100.00;102221.47;4988384;28;20062;-65
2024/02/01 00:31:07;;;;;;;25.17;5.60;;;;;;;3.99;100.00;102220.63;4977960;28;20413;-65
2024/02/01 00:33:34;;;;;;;19.60;5.35;;;;;;;3.98;100.00;102225.28;4959475;28;20047;-65
2024/02/01 00:36:02;;;;;;;22.27;5.28;;;;;;;3.97;100.00;102242.81;4960000;28;20054;-65
2024/02/01 00:38:29;;;;;;;25.13;5.13;;;;;;;3.96;100.00;102237.59;4989792;28;20080;-65
2024/02/01 00:40:57;;;;;;;14.73;4.85;;;;;;;3.96;100.00;102237.59;4977679;28;20051;-66
2024/02/01 00:43:24;;;;;;;18.95;4.82;;;;;;;3.94;100.00;102235.16;4982600;28;20051;-65
2024/02/01 00:45:51;;;;;;;16.42;5.63;;;;;;;3.93;100.00;102252.66;4974363;28;20464;-65
2024/02/01 00:48:19;;;;;;;20.77;4.65;;;;;;;3.91;100.00;102252.09;4957480;28;20069;-65
2024/02/01 00:50:47;;;;;;;23.05;5.57;;;;;;;3.93;100.00;102254.56;4963991;28;20282;-65
2024/02/01 00:53:14;;;;;;;25.70;5.43;;;;;;;3.92;100.00;102256.47;4982732;28;20042;-65
2024/02/01 00:55:41;;;;;;;28.30;5.90;;;;;;;3.90;100.00;102249.63;4971944;28;20047;-65
2024/02/01 00:58:09;;;;;;;24.90;4.90;;;;;;;3.88;100.00;102255.38;4979777;28;20046;-65
2024/02/01 01:00:36;;;;;;;19.52;5.85;;;;;;;3.84;100.00;102247.94;4969898;28;20047;-65
2024/02/01 01:03:04;;;;;;;21.60;8.13;;;;;;;3.81;100.00;102254.78;4973794;28;20055;-65
2024/02/01 01:05:32;;;;;;;25.70;4.72;;;;;;;3.78;100.00;102252.56;4978334;28;20062;-65
2024/02/01 01:07:59;;;;;;;19.52;5.40;;;;;;;3.74;100.00;102240.47;4968279;28;20055;-65
2024/02/01 01:10:27;;;;;;;19.88;4.63;;;;;;;3.70;100.00;102247.56;4985183;28;20046;-65
2024/02/01 01:12:54;;;;;;;20.55;5.00;;;;;;;3.65;100.00;102245.59;4975992;28;20101;-65
2024/02/01 01:15:22;;;;;;;19.48;5.28;;;;;;;3.62;100.00;102240.69;4972859;28;20056;-65
2024/02/01 01:17:49;;;;;;;16.27;5.00;;;;;;;3.59;100.00;102237.63;4988708;28;20072;-64
2024/02/01 01:20:17;;;;;;;21.80;4.80;;;;;;;3.54;100.00;102241.16;4988535;28;20046;-65
2024/02/01 01:22:46;;;;;;;26.23;5.80;;;;;;;3.52;100.00;102239.78;4989160;28;20575;-65
2024/02/01 01:25:13;;;;;;;19.98;4.35;;;;;;;3.52;100.00;102248.00;4959552;28;20051;-65
2024/02/01 01:27:41;;;;;;;17.08;4.82;;;;;;;3.52;100.00;102248.00;4970257;28;20532;-65
2024/02/01 01:30:09;;;;;;;17.40;5.22;;;;;;;3.48;100.00;102250.41;4970199;28;20062;-65
2024/02/01 01:32:36;;;;;;;25.35;7.38;;;;;;;3.46;100.00;102244.38;4966414;28;20055;-65
2024/02/01 01:35:04;;;;;;;22.10;6.72;;;;;;;3.44;100.00;102241.06;4970685;28;20058;-64
2024/02/01 01:37:36;;;;;;;25.58;6.55;;;;;;;3.41;100.00;102246.25;4976385;28;20065;-65
2024/02/01 01:40:05;;;;;;;17.58;5.07;;;;;;;3.41;100.00;102246.25;4987912;28;20038;-65
2024/02/01 01:42:32;;;;;;;22.73;5.20;;;;;;;3.40;100.00;102263.75;4979248;28;20047;-65
2024/02/01 01:44:59;;;;;;;16.95;5.47;;;;;;;3.38;100.00;102258.53;4969018;28;20054;-65
2024/02/01 01:47:29;;;;;;;18.13;5.70;;;;;;;3.34;100.00;102262.88;4974740;28;20417;-64
2024/02/01 01:49:57;;;;;;;22.67;5.43;;;;;;;3.34;100.00;102256.56;4972852;28;20096;-64
2024/02/01 01:52:26;;;;;;;22.45;4.35;;;;;;;3.32;100.00;102267.78;4977473;28;20150;-64
2024/02/01 01:54:57;;;;;;;16.77;4.57;;;;;;;3.32;100.00;102269.69;4968724;28;20047;-64
2024/02/01 01:57:26;;;;;;;18.30;5.28;;;;;;;3.31;100.00;102268.88;4971531;28;20039;-64
2024/02/01 01:59:55;;;;;;;24.15;6.13;;;;;;;3.32;100.00;102254.09;4968014;28;20055;-64
2024/02/01 02:02:25;;;;;;;17.05;4.45;;;;;;;3.33;100.00;102263.97;4968325;28;20087;-64
2024/02/01 02:04:52;;;;;;;24.73;5.00;;;;;;;3.36;100.00;102277.13;4978150;28;20050;-65
2024/02/01 02:07:20;;;;;;;24.38;4.53;;;;;;;3.39;100.00;102279.34;4971498;28;20058;-64
2024/02/01 02:09:47;;;;;;;25.92;5.80;;;;;;;3.41;100.00;102290.06;4984603;28;20062;-64
2024/02/01 02:12:15;;;;;;;15.98;4.07;;;;;;;3.43;100.00;102287.88;4972721;28;20497;-64
2024/02/01 02:14:53;;;;;;;17.40;4.28;;;;;;;3.46;100.00;102285.44;4974693;28;20505;-64
2024/02/01 02:17:20;;;;;;;21.10;4.80;;;;;;;3.51;100.00;102292.88;4968136;28;20062;-64
2024/02/01 02:19:48;;;;;;;19.15;5.47;;;;;;;3.51;100.00;102301.09;4968157;28;20050;-64
2024/02/01 02:22:16;;;;;;;16.85;5.30;;;;;;;3.47;100.00;102299.94;4973940;28;20528;-64
2024/02/01 02:24:43;;;;;;;24.33;4.70;;;;;;;3.45;100.00;102305.69;4966903;28;20058;-65
2024/02/01 02:27:11;;;;;;;21.63;5.35;;;;;;;3.41;100.00;102304.56;4974103;28;20046;-65
2024/02/01 02:29:38;;;;;;;19.77;6.32;;;;;;;3.38;100.00;102296.03;4971300;28;20046;-64
2024/02/01 02:32:06;;;;;;;17.67;4.50;;;;;;;3.34;100.00;102292.97;4967273;28;20050;-64
2024/02/01 02:34:33;;;;;;;21.65;5.47;;;;;;;3.33;100.00;102296.81;4967092;28;20047;-64
2024/02/01 02:37:00;;;;;;;21.25;5.43;;;;;;;3.32;100.00;102302.53;4967506;28;20528;-64
2024/02/01 02:39:28;;;;;;;16.27;4.90;;;;;;;3.26;100.00;102298.94;4969505;28;20043;-65
2024/02/01 02:41:55;;;;;;;21.05;6.00;;;;;;;3.26;100.00;102293.44;4967227;28;20464;-64
2024/02/01 02:44:23;;;;;;;21.08;4.88;;;;;;;3.23;100.00;102293.97;4967875;28;20753;-64
2024/02/01 02:46:50;;;;;;;28.63;4.25;;;;;;;3.22;100.00;102295.06;4962838;28;20073;-64
2024/02/01 02:49:17;;;;;;;19.25;6.00;;;;;;;3.20;100.00;102291.78;4968366;28;20058;-64
2024/02/01 02:51:45;;;;;;;14.05;4.47;;;;;;;3.18;100.00;102287.66;4975366;28;20528;-64
2024/02/01 02:54:13;;;;;;;24.83;6.40;;;;;;;3.17;100.00;102305.13;4966446;28;20158;-64
2024/02/01 02:56:40;;;;;;;20.40;5.68;;;;;;;3.15;100.00;102307.31;4967574;28;20750;-64
2024/02/01 02:59:08;;;;;;;15.00;4.30;;;;;;;3.16;100.00;102309.78;4966920;28;20039;-64
2024/02/01 03:01:36;;;;;;;19.30;4.60;;;;;;;3.12;100.00;102316.03;5012245;23;20063;-64
2024/02/01 03:04:03;;;;;;;18.17;4.35;;;;;;;3.08;100.00;102327.47;4947481;29;20050;-64
2024/02/01 03:06:30;;;;;;;24.48;5.97;;;;;;;3.07;100.00;102325.81;4947743;29;20764;-64
2024/02/01 03:08:58;;;;;;;15.65;3.83;;;;;;;3.06;100.00;102337.03;4948267;29;20040;-64
2024/02/01 03:11:26;;;;;;;18.23;4.68;;;;;;;3.05;100.00;102332.63;4948417;28;20115;-64
2024/02/01 03:13:53;;;;;;;18.63;5.07;;;;;;;3.04;100.00;102340.00;4948040;28;20051;-64
2024/02/01 03:16:22;;;;;;;17.98;3.85;;;;;;;3.03;100.00;102343.84;4947539;29;20043;-63
2024/02/01 03:18:50;;;;;;;13.77;4.20;;;;;;;3.03;100.00;102353.97;4946824;28;20047;-64
2024/02/01 03:21:21;;;;;;;13.60;4.28;;;;;;;3.02;100.00;102355.03;4948622;28;20050;-64
2024/02/01 03:23:50;;;;;;;15.15;4.07;;;;;;;3.01;100.00;102367.91;4947159;28;20047;-64
2024/02/01 03:26:17;;;;;;;15.35;3.65;;;;;;;3.02;100.00;102364.06;4947246;28;20047;-64
2024/02/01 03:28:47;;;;;;;15.40;3.95;;;;;;;3.02;100.00;102366.81;4934891;29;20043;-64
2024/02/01 03:31:14;;;;;;;18.02;3.45;;;;;;;3.03;100.00;102381.31;4946643;28;20043;-64
2024/02/01 03:33:47;;;;;;;13.25;3.65;;;;;;;3.03;100.00;102376.69;4936990;28;20043;-64
2024/02/01 03:36:15;;;;;;;17.75;6.38;;;;;;;3.01;100.00;102370.63;4947254;28;20047;-64
2024/02/01 03:38:43;;;;;;;22.52;4.75;;;;;;;3.01;100.00;102387.06;4937284;29;20063;-64
2024/02/01 03:41:11;;;;;;;22.88;3.97;;;;;;;3.02;100.00;102396.91;4945357;28;20055;-64
2024/02/01 03:43:38;;;;;;;14.13;4.22;;;;;;;3.01;100.00;102395.25;4947913;28;20055;-64
2024/02/01 03:46:07;;;;;;;25.77;4.38;;;;;;;3.02;100.00;102385.13;4930009;29;20047;-65
2024/02/01 03:48:34;;;;;;;14.07;3.88;;;;;;;3.02;100.00;102393.31;4929349;29;20052;-64
2024/02/01 03:51:03;;;;;;;20.00;3.97;;;;;;;3.03;100.00;102392.25;4947165;28;20043;-64
2024/02/01 03:53:30;;;;;;;23.90;5.88;;;;;;;3.02;100.00;102394.16;4947487;28;20831;-64
2024/02/01 03:55:57;;;;;;;18.13;4.68;;;;;;;3.03;100.00;102397.72;4947240;29;20069;-64
2024/02/01 03:58:26;;;;;;;18.30;3.38;;;;;;;3.02;100.00;102402.38;4947834;28;20051;-63
2024/02/01 04:00:56;;;;;;;24.35;5.43;;;;;;;3.02;100.00;102396.91;4939828;28;20409;-64
2024/02/01 04:03:24;;;;;;;18.88;4.07;;;;;;;3.01;100.00;102400.72;4966246;28;20078;-64
2024/02/01 04:05:53;;;;;;;12.07;3.17;;;;;;;3.03;100.00;102406.78;4966110;28;20393;-64
2024/02/01 04:08:21;;;;;;;26.98;5.13;;;;;;;3.03;100.00;102408.69;4966404;28;20066;-64
2024/02/01 04:10:49;;;;;;;22.23;5.55;;;;;;;3.02;100.00;102409.75;4966308;28;20075;-64
2024/02/01 04:13:16;;;;;;;28.35;4.90;;;;;;;3.00;100.00;102415.47;4966315;28;20043;-64
2024/02/01 04:15:44;;;;;;;11.93;4.22;;;;;;;3.00;100.00;102423.69;4966357;28;20061;-64
2024/02/01 04:18:12;;;;;;;9.15;3.00;;;;;;;3.01;100.00;102419.06;4954936;28;20055;-64
2024/02/01 04:20:41;;;;;;;15.27;4.97;;;;;;;3.00;100.00;102418.22;4964060;28;20047;-64
2024/02/01 04:23:09;;;;;;;13.75;4.53;;;;;;;3.02;100.00;102421.53;4966726;28;20412;-64
2024/02/01 04:25:36;;;;;;;16.10;4.82;;;;;;;3.04;100.00;102430.28;4965953;28;20039;-64
2024/02/01 04:28:08;;;;;;;19.17;3.78;;;;;;;3.05;100.00;102417.44;4965471;28;20058;-64
2024/02/01 04:30:37;;;;;;;21.95;5.30;;;;;;;3.06;100.00;102425.41;4966308;28;20051;-64
2024/02/01 04:33:06;;;;;;;21.55;4.00;;;;;;;3.05;100.00;102431.97;4969651;28;20043;-64
2024/02/01 04:35:33;;;;;;;21.60;3.92;;;;;;;3.02;100.00;102424.25;4969314;28;20055;-64
2024/02/01 04:38:01;;;;;;;18.63;4.03;;;;;;;3.00;100.00;102426.44;4969457;28;20768;-64
2024/02/01 04:40:29;;;;;;;14.73;3.55;;;;;;;3.00;100.00;102434.63;4969214;28;20072;-64
2024/02/01 04:42:57;;;;;;;22.30;4.43;;;;;;;2.99;100.00;102434.91;4970137;28;20050;-64
2024/02/01 04:45:25;;;;;;;26.08;5.45;;;;;;;2.99;100.00;102441.19;4969790;28;20046;-64
2024/02/01 04:47:52;;;;;;;20.63;4.45;;;;;;;2.98;100.00;102439.53;4969202;28;20413;-64
2024/02/01 04:50:20;;;;;;;21.33;4.30;;;;;;;2.98;100.00;102441.44;4969646;28;20712;-64
2024/02/01 04:52:47;;;;;;;18.63;4.32;;;;;;;2.97;100.00;102443.34;4966668;28;20514;-64
2024/02/01 04:55:15;;;;;;;16.20;3.40;;;;;;;2.96;100.00;102451.81;4958507;28;20047;-64
2024/02/01 04:57:42;;;;;;;15.57;3.28;;;;;;;2.94;100.00;102456.69;4970327;28;20054;-64
2024/02/01 05:00:14;;;;;;;24.05;5.05;;;;;;;2.95;100.00;102445.50;4969236;28;20054;-64
2024/02/01 05:02:42;;;;;;;19.80;4.43;;;;;;;2.94;100.00;102460.25;4968293;28;20522;-64
2024/02/01 05:05:11;;;;;;;23.80;3.83;;;;;;;2.94;100.00;102459.44;4969413;28;20055;-64
2024/02/01 05:07:39;;;;;;;20.10;5.53;;;;;;;2.92;100.00;102456.97;4974501;28;20420;-64
2024/02/01 05:10:12;;;;;;;16.70;3.20;;;;;;;2.92;100.00;102467.06;4969183;28;20087;-64
2024/02/01 05:12:40;;;;;;;13.35;3.70;;;;;;;2.93;100.00;102474.19;4967594;28;20532;-64
2024/02/01 05:15:09;;;;;;;37.00;7.97;;;;;;;2.92;100.00;102465.16;4968506;28;20062;-64
2024/02/01 05:17:37;;;;;;;13.68;3.30;;;;;;;2.91;100.00;102468.97;4970092;28;20047;-64
2024/02/01 05:20:08;;;;;;;23.77;4.82;;;;;;;2.92;100.00;102467.91;4968932;28;20042;-65
2024/02/01 05:22:39;;;;;;;11.32;3.20;;;;;;;2.92;100.00;102462.44;4969538;28;20051;-64
2024/02/01 05:25:19;;;;;;;16.20;3.75;;;;;;;2.92;100.00;102465.16;4968885;28;20047;-64
2024/02/01 05:27:52;;;;;;;20.10;3.88;;;;;;;2.92;100.00;102451.50;4962925;28;20047;-64
2024/02/01 05:30:22;;;;;;;8.18;2.80;;;;;;;2.91;100.00;102447.09;4964908;28;20141;-64
2024/02/01 05:32:52;;;;;;;14.60;3.58;;;;;;;2.91;100.00;102460.75;4964434;28;20047;-64
2024/02/01 05:35:26;;;;;;;8.63;2.65;;;;;;;2.92;100.00;102467.91;4968700;28;20046;-64
2024/02/01 05:38:00;;;;;;;12.77;3.22;;;;;;;2.92;100.00;102467.91;4964562;28;20054;-64
2024/02/01 05:40:30;;;;;;;16.17;3.95;;;;;;;2.93;100.00;102466.00;4968943;28;20057;-64
2024/02/01 05:42:58;;;;;;;14.60;3.35;;;;;;;2.94;100.00;102484.03;4967112;28;20409;-64
2024/02/01 05:45:28;;;;;;;15.27;3.63;;;;;;;2.93;100.00;102480.50;4962199;28;20859;-64
2024/02/01 05:47:58;;;;;;;18.98;3.70;;;;;;;2.95;100.00;102485.72;4951522;28;20416;-64
2024/02/01 05:50:26;;;;;;;22.65;3.58;;;;;;;2.94;100.00;102490.34;4968265;28;20063;-64
2024/02/01 05:52:54;;;;;;;18.50;3.38;;;;;;;2.92;100.00;102500.72;4968315;28;20050;-64
2024/02/01 05:55:22;;;;;;;15.15;3.35;;;;;;;2.93;100.00;102505.13;4968372;28;20059;-64
2024/02/01 05:57:49;;;;;;;13.02;3.10;;;;;;;2.92;100.00;102503.47;4967048;28;20633;-64
2024/02/01 06:00:21;;;;;;;15.15;3.92;;;;;;;2.93;100.00;102512.50;4968745;28;20094;-64
2024/02/01 06:02:50;;;;;;;12.40;3.83;;;;;;;2.92;100.00;102503.47;4974376;28;20051;-64
2024/02/01 06:05:20;;;;;;;15.65;3.63;;;;;;;2.92;100.00;102499.88;4968572;28;20501;-64
2024/02/01 06:07:48;;;;;;;18.73;5.68;;;;;;;2.93;100.00;102509.78;4971662;28;20058;-64
2024/02/01 06:10:15;;;;;;;12.82;3.20;;;;;;;2.93;100.00;102507.88;4968057;28;20051;-64
2024/02/01 06:12:43;;;;;;;14.32;4.70;;;;;;;2.93;100.00;102509.78;4968276;28;20065;-64
2024/02/01 06:15:11;;;;;;;19.30;3.65;;;;;;;2.95;100.00;102500.22;4967857;28;20051;-64
2024/02/01 06:17:39;;;;;;;17.50;5.05;;;;;;;2.97;100.00;102499.97;4968023;28;20053;-64
2024/02/01 06:20:09;;;;;;;26.88;4.50;;;;;;;2.98;100.00;102494.25;4962149;28;20492;-65
2024/02/01 06:22:37;;;;;;;22.33;4.30;;;;;;;2.98;100.00;102499.72;4968192;28;20055;-64
2024/02/01 06:25:05;;;;;;;19.27;3.60;;;;;;;2.97;100.00;102489.84;4967798;28;20047;-63
2024/02/01 06:27:33;;;;;;;22.35;4.53;;;;;;;2.98;100.00;102494.25;4957008;28;20066;-64
2024/02/01 06:30:00;;;;;;;22.73;5.50;;;;;;;2.97;100.00;102486.28;4965271;28;20043;-64
2024/02/01 06:32:28;;;;;;;15.02;2.97;;;;;;;2.95;100.00;102500.22;4967195;28;20051;-64
2024/02/01 06:35:05;;;;;;;21.38;3.38;;;;;;;2.95;100.00;102491.19;4967378;28;20051;-64
2024/02/01 06:37:35;;;;;;;17.48;4.60;;;;;;;2.93;100.00;102491.44;4968002;28;20714;-64
2024/02/01 06:43:08;;;;;;;14.20;4.38;;;;;;;2.90;100.00;102502.88;4967756;28;20058;-64
2024/02/01 06:45:47;;;;;;;15.02;3.45;;;;;;;2.90;100.00;102505.63;4966055;28;20043;-64
2024/02/01 06:48:16;;;;;;;15.65;2.50;;;;;;;2.91;100.00;102506.47;4955014;28;20058;-64
2024/02/01 06:51:10;;;;;;;26.25;4.35;;;;;;;2.92;100.00;102517.13;4955872;28;20050;-64
2024/02/01 06:53:44;;;;;;;22.90;3.42;;;;;;;2.94;100.00;102519.59;4967309;28;20508;-64
2024/02/01 06:56:28;;;;;;;13.88;4.20;;;;;;;2.94;100.00;102519.59;4966668;28;20066;-64
2024/02/01 06:59:21;;;;;;;11.63;3.00;;;;;;;2.97;100.00;102511.75;4967197;28;20054;-64
2024/02/01 07:02:01;;;;;;;13.77;4.30;;;;;;;2.99;100.00;102517.78;4966703;28;20708;-64
2024/02/01 07:04:42;;;;;;;13.38;3.85;;;;;;;2.98;100.00;102512.56;4956737;28;20065;-64
2024/02/01 07:07:25;;;;;;;14.75;3.50;;;;;;;2.99;100.00;102522.44;4967265;28;20054;-64
2024/02/01 07:10:13;;;;;;;15.88;3.75;;;;;;;2.95;100.00;102530.31;4967437;28;20051;-64
2024/02/01 07:13:03;;;;;;;14.15;2.53;;;;;;;2.95;100.00;102533.06;4964961;28;20050;-64
2024/02/01 07:15:31;;;;;;;17.98;3.15;;;;;;;2.93;100.00;102543.44;4966328;28;20487;-64
2024/02/01 07:18:06;;;;;;;15.23;2.85;;;;;;;2.92;100.00;102541.75;4966626;28;20046;-64
2024/02/01 07:20:35;;;;;;;18.33;3.30;;;;;;;2.90;100.00;102545.81;4967188;28;20410;-64
2024/02/01 07:26:16;;;;;;;17.05;3.50;;;;;;;2.89;100.00;102534.06;4966359;28;20432;-64
2024/02/01 07:59:14;;;;;;;17.30;2.83;;;;;;;2.61;100.00;102564.22;4966961;28;20112;-62
2024/02/01 08:10:00;;;;;;;18.88;3.13;;;;;;;2.51;100.00;102599.59;4971217;28;20050;-62
2024/02/01 08:12:33;;;;;;;14.80;2.85;;;;;;;2.51;100.00;102615.19;4970469;28;20069;-63
2024/02/01 08:15:02;;;;;;;10.63;3.13;;;;;;;2.52;100.00;102614.09;4954163;28;20497;-62
2024/02/01 08:17:29;;;;;;;19.52;3.53;;;;;;;2.52;100.00;102623.13;4970222;28;20830;-62
2024/02/01 08:19:57;;;;;;;15.73;2.92;;;;;;;2.55;100.00;102619.91;4969645;28;20039;-64
2024/02/01 08:22:25;;;;;;;19.73;5.90;;;;;;;2.62;100.00;102633.44;4969602;28;20082;-64
2024/02/01 08:24:54;;;;;;;15.55;5.70;;;;;;;2.65;100.00;102635.69;4962527;28;20528;-64
2024/02/01 08:27:25;;;;;;;12.15;4.20;;;;;;;2.70;100.00;102643.97;4956601;28;20043;-63
2024/02/01 08:29:53;;;;;;;30.98;6.35;;;;;;;2.74;100.00;102650.59;4966107;28;20058;-62
2024/02/01 08:32:21;;;;;;;21.30;6.05;;;;;;;2.78;100.00;102641.63;4969916;28;20062;-62
2024/02/01 08:34:49;;;;;;;15.52;3.50;;;;;;;2.85;100.00;102652.44;4970437;28;20059;-62
2024/02/01 08:37:17;;;;;;;24.17;4.57;;;;;;;2.91;100.00;102641.31;4970461;28;20050;-62
2024/02/01 08:39:45;;;;;;;14.18;3.55;;;;;;;2.96;100.00;102646.88;4946706;28;20042;-61
2024/02/01 08:42:13;;;;;;;20.75;4.93;;;;;;;3.02;100.00;102653.25;4970044;28;20039;-61
2024/02/01 08:44:43;;;;;;;22.33;3.53;;;;;;;3.04;100.00;102668.34;4968330;28;20047;-62
2024/02/01 08:47:13;;;;;;;16.33;3.28;;;;;;;3.08;100.00;102668.69;4970168;28;20054;-62
2024/02/01 08:49:41;;;;;;;18.05;4.45;;;;;;;3.14;100.00;102661.38;4970172;28;20058;-61
2024/02/01 08:52:13;;;;;;;19.65;3.78;;;;;;;3.17;100.00;102671.84;4952697;28;20058;-62
2024/02/01 08:54:42;;;;;;;15.98;4.55;;;;;;;3.22;100.00;102669.19;4970433;28;20043;-61
2024/02/01 08:57:16;;;;;;;16.50;3.17;;;;;;;3.28;100.00;102676.41;4969217;28;20118;-61
2024/02/01 08:59:44;;;;;;;16.77;3.35;;;;;;;3.32;100.00;102664.69;4969774;28;20059;-61
2024/02/01 09:02:15;;;;;;;8.77;2.90;;;;;;;3.37;100.00;102658.47;4964277;28;20065;-61
2024/02/01 09:04:43;;;;;;;12.93;3.63;;;;;;;3.41;100.00;102656.91;4967323;28;20059;-61
2024/02/01 09:07:10;;;;;;;21.25;6.72;;;;;;;3.43;100.00;102654.72;4951874;28;20053;-61
2024/02/01 09:09:39;;;;;;;27.65;4.75;;;;;;;3.49;100.00;102667.44;4969683;28;20412;-61
2024/02/01 09:12:07;;;;;;;13.77;3.33;;;;;;;3.56;100.00;102682.59;4968206;28;20062;-61
2024/02/01 09:14:35;;;;;;;11.75;3.95;;;;;;;3.63;100.00;102671.44;4965012;28;20051;-62
2024/02/01 09:17:03;;;;;;;31.15;4.47;;;;;;;3.69;100.00;102670.44;4969579;28;20744;-62
2024/02/01 09:19:30;;;;;;;9.65;3.08;;;;;;;3.74;100.00;102662.31;4969486;28;20055;-62
2024/02/01 09:22:00;;;;;;;30.05;5.32;;;;;;;3.78;100.00;102666.22;4968542;28;20057;-62
2024/02/01 09:24:28;;;;;;;18.15;5.07;;;;;;;3.84;100.00;102691.75;4970109;28;20050;-62
2024/02/01 09:26:55;;;;;;;18.20;3.35;;;;;;;3.92;100.00;102689.41;4964865;28;20043;-63
2024/02/01 09:29:26;;;;;;;26.67;4.40;;;;;;;3.99;100.00;102664.56;4961115;28;20674;-62
2024/02/01 09:31:56;;;;;;;16.98;3.45;;;;;;;4.04;100.00;102659.97;4968575;28;20046;-62
2024/02/01 09:34:23;;;;;;;19.67;3.95;;;;;;;4.09;100.00;102654.56;4969255;28;20051;-62
2024/02/01 09:36:51;;;;;;;40.50;5.53;;;;;;;4.16;100.00;102657.91;4964432;28;20057;-63
2024/02/01 09:39:18;;;;;;;20.88;5.15;;;;;;;4.20;100.00;102658.25;4956435;28;20503;-62
2024/02/01 09:41:47;;;;;;;19.63;3.65;;;;;;;4.24;100.00;102657.47;4951436;28;20066;-62
2024/02/01 09:44:14;;;;;;;14.75;3.63;;;;;;;4.31;100.00;102647.13;4967617;28;20050;-63
2024/02/01 09:46:46;;;;;;;24.33;3.83;;;;;;;4.36;100.00;102649.13;4963951;28;20076;-62
2024/02/01 09:49:13;;;;;;;20.73;5.15;;;;;;;4.40;100.00;102642.00;4968795;28;20062;-62
2024/02/01 09:51:51;;;;;;;20.10;3.53;;;;;;;4.47;100.00;102650.06;4969414;28;20066;-62
2024/02/01 09:54:18;;;;;;;18.88;4.20;;;;;;;4.56;100.00;102645.75;4968977;28;20420;-63
2024/02/01 09:56:46;;;;;;;16.25;3.25;;;;;;;4.64;100.00;102645.28;4969071;28;20055;-63
2024/02/01 09:59:14;;;;;;;20.00;3.85;;;;;;;4.71;100.00;102645.91;4968607;28;20452;-62
2024/02/01 10:01:42;;;;;;;14.30;5.43;;;;;;;4.75;100.00;102658.84;4968640;28;20067;-63
2024/02/01 10:04:11;;;;;;;16.55;5.68;;;;;;;4.77;100.00;102670.38;4966603;28;20047;-63
2024/02/01 10:06:39;;;;;;;16.05;4.03;;;;;;;4.79;100.00;102670.94;4964141;28;20055;-63
2024/02/01 10:09:22;;;;;;;23.02;5.18;;;;;;;4.77;100.00;102656.66;4961894;28;20035;-62
2024/02/01 10:11:54;;;;;;;21.35;4.68;;;;;;;4.80;100.00;102669.03;4962121;28;20895;-63
2024/02/01 10:14:45;;;;;;;11.15;2.10;;;;;;;4.82;100.00;102664.94;4956766;28;20610;-63
2024/02/01 10:17:11;;;;;;;21.38;3.75;;;;;;;4.89;100.00;102662.00;4968448;28;20054;-63
2024/02/01 10:19:49;;;;;;;19.42;4.03;;;;;;;4.96;100.00;102665.34;4968275;28;20075;-63
2024/02/01 10:22:16;;;;;;;16.35;3.90;;;;;;;5.02;100.00;102658.81;4967866;28;20057;-63
2024/02/01 10:24:48;;;;;;;15.73;3.85;;;;;;;5.13;100.00;102685.28;4968865;28;20065;-63
2024/02/01 10:27:19;;;;;;;19.23;4.80;;;;;;;5.23;100.00;102677.13;4956482;28;20053;-63
2024/02/01 10:29:47;;;;;;;16.00;3.28;;;;;;;5.31;100.00;102678.53;4969002;28;20066;-63
2024/02/01 10:32:15;;;;;;;19.40;4.72;;;;;;;5.36;100.00;102684.91;4969511;28;20049;-63
2024/02/01 10:34:49;;;;;;;16.20;5.75;;;;;;;5.41;100.00;102673.13;4969012;28;20047;-63
2024/02/01 10:37:19;;;;;;;16.83;3.60;;;;;;;5.44;100.00;102667.94;4963425;28;20047;-63
2024/02/01 10:40:06;;;;;;;18.88;4.43;;;;;;;5.45;100.00;102664.06;4964673;28;20609;-64
2024/02/01 10:42:38;;;;;;;17.90;3.95;;;;;;;5.48;100.00;102658.06;4967837;28;20062;-64
2024/02/01 10:45:10;;;;;;;17.52;3.50;;;;;;;5.49;100.00;102654.22;4968336;28;20062;-63
2024/02/01 10:47:45;;;;;;;17.33;5.30;;;;;;;5.49;100.00;102643.25;4955884;28;20047;-64
2024/02/01 10:50:14;;;;;;;20.25;3.65;;;;;;;5.51;100.00;102652.03;4966961;28;20050;-63
2024/02/01 10:52:43;;;;;;;21.10;3.53;;;;;;;5.59;100.00;102658.16;4963953;28;20047;-63
2024/02/01 10:55:11;;;;;;;14.80;4.20;;;;;;;5.67;100.00;102660.38;4963680;28;20054;-63
2024/02/01 10:57:44;;;;;;;20.25;3.40;;;;;;;5.75;100.00;102663.44;4967952;28;20050;-63
2024/02/01 11:00:19;;;;;;;18.52;4.40;;;;;;;5.82;100.00;102663.22;4967852;28;20062;-64
2024/02/01 11:02:52;;;;;;;20.90;3.45;;;;;;;5.89;100.00;102652.84;4955562;28;20441;-63
2024/02/01 11:05:27;;;;;;;18.35;3.25;;;;;;;5.96;100.00;102634.16;4957154;28;20062;-63
2024/02/01 11:07:54;;;;;;;18.35;4.68;;;;;;;6.02;100.00;102635.84;4951001;28;20078;-63
2024/02/01 11:10:23;;;;;;;14.45;2.85;;;;;;;6.07;100.00;102633.13;4962967;28;20054;-63
2024/02/01 11:12:54;;;;;;;17.52;3.85;;;;;;;6.13;100.00;102629.31;4957864;28;20043;-63
2024/02/01 11:15:25;;;;;;;15.13;4.07;;;;;;;6.17;100.00;102637.84;4957502;28;20055;-63
2024/02/01 11:18:00;;;;;;;12.30;3.30;;;;;;;6.20;100.00;102632.63;4951660;28;20651;-63
2024/02/01 11:20:31;;;;;;;15.05;3.92;;;;;;;6.22;100.00;102641.44;4951832;28;20501;-64
2024/02/01 11:23:05;;;;;;;17.40;4.28;;;;;;;6.25;100.00;102657.38;4949858;28;20765;-63
2024/02/01 11:25:34;;;;;;;15.48;2.92;;;;;;;6.26;100.00;102652.72;4958725;28;20052;-63
2024/02/01 11:28:11;;;;;;;17.27;4.07;;;;;;;6.28;100.00;102650.50;4962783;28;20050;-64
2024/02/01 11:30:50;;;;;;;35.13;5.38;;;;;;;6.27;100.00;102655.22;4951077;28;20055;-64
2024/02/01 11:33:37;;;;;;;14.13;3.33;;;;;;;6.24;100.00;102661.25;4946107;28;20497;-64
2024/02/01 11:36:05;;;;;;;15.55;3.58;;;;;;;6.23;100.00;102658.75;4958285;28;20039;-65
2024/02/01 11:38:33;;;;;;;20.75;3.22;;;;;;;6.25;100.00;102662.09;4954513;28;20054;-63
2024/02/01 11:41:00;;;;;;;17.92;3.65;;;;;;;6.26;100.00;102661.81;4967626;28;20061;-63
2024/02/01 11:43:27;;;;;;;20.23;3.75;;;;;;;6.29;100.00;102671.44;4971113;28;20416;-63
2024/02/01 11:45:56;;;;;;;15.00;3.08;;;;;;;6.33;100.00;102653.31;4970565;28;20050;-63
2024/02/01 11:48:24;;;;;;;21.23;3.50;;;;;;;6.39;100.00;102647.53;4958723;28;20050;-63
2024/02/01 11:50:58;;;;;;;20.92;3.08;;;;;;;6.46;100.00;102641.78;4968318;28;20401;-64
2024/02/01 11:53:27;;;;;;;70.78;7.05;;;;;;;6.50;100.00;102638.22;4947694;28;20054;-63
2024/02/01 11:55:55;;;;;;;34.47;4.20;;;;;;;6.56;100.00;102630.78;4967973;28;20087;-63
2024/02/01 11:58:24;;;;;;;41.15;6.15;;;;;;;6.63;100.00;102626.69;4959263;28;20509;-63
2024/02/01 12:00:55;;;;;;;20.55;3.65;;;;;;;6.72;100.00;102633.28;4964702;28;20043;-63
2024/02/01 12:03:46;;;;;;;16.67;3.08;;;;;;;6.80;99.75;102626.44;4967727;28;20074;-63
2024/02/01 12:06:14;;;;;;;26.15;4.57;;;;;;;6.81;99.64;102594.19;4964917;28;20043;-63
2024/02/01 12:08:43;;;;;;;18.30;4.43;;;;;;;6.81;99.51;102572.19;4965557;28;20080;-63
2024/02/01 12:11:11;;;;;;;16.08;2.85;;;;;;;6.75;99.17;102585.13;4966217;28;20065;-63
2024/02/01 12:13:39;;;;;;;20.65;5.13;;;;;;;6.70;99.20;102588.69;4960236;28;20378;-63